Time;durP1;ratioP1;P1;durP2;ratioP2;P2;SDS_P1;SDS_P2;PMS_P1;PMS_P2;Temp;Humidity;BMP_temperature;BMP_pressure;BME280_temperature;BME280_humidity;BME280_pressure;Samples;Min_cycle;Max_cycle;Signal;HPM_P1;HPM_P2
2022/08/18 00:00:35;;;;;;;11.45;6.10;;;;;;;;;;4937022;29;20024;-75
2022/08/18 00:03:07;;;;;;;8.25;5.32;;;;;;;;;;4938382;29;20028;-74
2022/08/18 00:05:33;;;;;;;8.23;5.43;;;;;;;;;;4920989;29;20060;-75
2022/08/18 00:07:59;;;;;;;9.18;5.68;;;;;;;;;;4936807;29;20028;-74
2022/08/18 00:10:26;;;;;;;7.70;5.28;;;;;;;;;;4936790;29;20023;-74
2022/08/18 00:12:52;;;;;;;9.07;5.78;;;;;;;;;;4937835;29;20121;-75
2022/08/18 00:15:18;;;;;;;8.32;5.63;;;;;;;;;;4920715;29;20040;-75
2022/08/18 00:17:45;;;;;;;9.00;5.57;;;;;;;;;;4936433;29;20031;-74
2022/08/18 00:20:17;;;;;;;7.85;5.72;;;;;;;;;;4936737;29;20023;-75
2022/08/18 00:22:44;;;;;;;10.63;5.88;;;;;;;;;;4936508;29;20477;-75
2022/08/18 00:25:11;;;;;;;9.68;6.15;;;;;;;;;;4937730;29;20024;-75
2022/08/18 00:27:40;;;;;;;11.75;5.43;;;;;;;;;;4936557;29;20058;-74
2022/08/18 00:30:07;;;;;;;13.55;6.35;;;;;;;;;;4935564;29;20151;-75
2022/08/18 00:32:35;;;;;;;10.32;6.05;;;;;;;;;;4936176;29;20122;-74
2022/08/18 00:35:09;;;;;;;8.70;6.32;;;;;;;;;;4936509;29;20028;-75
2022/08/18 00:37:36;;;;;;;7.88;5.55;;;;;;;;;;4936259;29;20024;-73
2022/08/18 00:40:02;;;;;;;7.97;5.43;;;;;;;;;;4937548;29;20401;-75
2022/08/18 00:42:30;;;;;;;11.75;4.90;;;;;;;;;;4935989;29;20052;-75
2022/08/18 00:44:57;;;;;;;8.70;5.43;;;;;;;;;;4936061;29;20376;-75
2022/08/18 00:47:27;;;;;;;8.45;5.88;;;;;;;;;;4937013;29;20110;-75
2022/08/18 00:49:53;;;;;;;7.93;5.55;;;;;;;;;;4935991;29;20555;-75
2022/08/18 00:52:19;;;;;;;10.25;6.00;;;;;;;;;;4937436;29;20032;-75
2022/08/18 00:54:47;;;;;;;12.77;5.78;;;;;;;;;;4935784;29;20031;-75
2022/08/18 00:57:15;;;;;;;8.75;5.47;;;;;;;;;;4936019;29;20048;-74
2022/08/18 00:59:56;;;;;;;8.10;5.47;;;;;;;;;;4939848;29;20110;-75
2022/08/18 01:02:26;;;;;;;9.05;6.00;;;;;;;;;;4937512;29;20059;-74
2022/08/18 01:04:55;;;;;;;9.27;6.07;;;;;;;;;;4937781;29;20031;-76
2022/08/18 01:07:25;;;;;;;8.90;6.07;;;;;;;;;;4936073;29;20027;-75
2022/08/18 01:09:51;;;;;;;11.10;5.90;;;;;;;;;;4935807;29;20032;-73
2022/08/18 01:12:18;;;;;;;10.20;6.28;;;;;;;;;;4935760;29;20027;-74
2022/08/18 01:14:45;;;;;;;9.82;6.47;;;;;;;;;;4937459;29;20080;-74
2022/08/18 01:22:46;;;;;;;12.30;6.93;;;;;;;;;;4938186;29;20122;-73
2022/08/18 01:28:01;;;;;;;12.75;7.28;;;;;;;;;;4936898;29;20088;-74
2022/08/18 01:30:27;;;;;;;15.60;7.07;;;;;;;;;;4935387;29;20515;-73
2022/08/18 01:32:53;;;;;;;10.02;7.10;;;;;;;;;;4936511;29;20036;-74
2022/08/18 01:35:21;;;;;;;11.27;7.05;;;;;;;;;;4935048;29;20035;-75
2022/08/18 01:37:48;;;;;;;11.35;7.30;;;;;;;;;;4935221;29;20035;-74
2022/08/18 01:40:15;;;;;;;10.50;7.00;;;;;;;;;;4936506;29;20034;-74
2022/08/18 01:42:45;;;;;;;10.57;6.95;;;;;;;;;;4934867;29;20048;-77
2022/08/18 01:45:12;;;;;;;18.63;7.05;;;;;;;;;;4935175;29;20035;-74
2022/08/18 01:47:39;;;;;;;9.73;6.63;;;;;;;;;;4935085;29;20480;-77
2022/08/18 01:50:06;;;;;;;11.02;6.95;;;;;;;;;;4936336;29;20051;-73
2022/08/18 01:52:34;;;;;;;10.70;6.60;;;;;;;;;;4935756;29;20557;-76
2022/08/18 01:55:01;;;;;;;11.20;7.03;;;;;;;;;;4936132;29;20440;-75
2022/08/18 01:57:28;;;;;;;12.73;7.75;;;;;;;;;;4934845;29;20038;-75
2022/08/18 01:59:54;;;;;;;10.02;7.10;;;;;;;;;;4935146;29;20031;-77
2022/08/18 02:02:26;;;;;;;9.50;6.97;;;;;;;;;;4935241;29;20031;-73
2022/08/18 02:04:54;;;;;;;11.10;7.57;;;;;;;;;;4935263;29;20467;-74
2022/08/18 02:07:20;;;;;;;11.40;6.93;;;;;;;;;;4934865;29;20096;-74
2022/08/18 02:09:46;;;;;;;14.48;6.88;;;;;;;;;;4919251;29;20090;-74
2022/08/18 02:12:12;;;;;;;8.82;6.28;;;;;;;;;;4935090;29;20024;-74
2022/08/18 02:14:40;;;;;;;10.10;7.38;;;;;;;;;;4934817;29;20028;-74
2022/08/18 02:17:07;;;;;;;10.52;6.97;;;;;;;;;;4936062;29;20175;-75
2022/08/18 02:19:34;;;;;;;12.70;6.90;;;;;;;;;;4919056;29;20039;-73
2022/08/18 02:22:01;;;;;;;20.23;7.50;;;;;;;;;;4936675;29;20114;-75
2022/08/18 02:24:27;;;;;;;12.65;7.93;;;;;;;;;;4935146;29;20032;-74
2022/08/18 02:26:53;;;;;;;10.65;7.78;;;;;;;;;;4934767;29;20063;-74
2022/08/18 02:29:19;;;;;;;13.82;6.72;;;;;;;;;;4934984;29;20027;-74
2022/08/18 02:31:45;;;;;;;12.32;7.45;;;;;;;;;;4935879;29;20034;-76
2022/08/18 02:34:11;;;;;;;16.00;8.02;;;;;;;;;;4934638;29;20079;-75
2022/08/18 02:36:38;;;;;;;17.73;7.72;;;;;;;;;;4934000;29;20095;-74
2022/08/18 02:39:04;;;;;;;12.88;7.28;;;;;;;;;;4934553;29;20034;-74
2022/08/18 02:41:32;;;;;;;11.98;7.28;;;;;;;;;;4934457;29;20481;-75
2022/08/18 02:43:59;;;;;;;14.10;7.55;;;;;;;;;;4934737;29;20055;-76
2022/08/18 02:46:25;;;;;;;13.60;7.38;;;;;;;;;;4934785;29;20042;-73
2022/08/18 02:48:52;;;;;;;11.85;7.75;;;;;;;;;;4935858;29;20110;-76
2022/08/18 02:51:18;;;;;;;14.27;7.65;;;;;;;;;;4934165;29;20062;-73
2022/08/18 02:53:45;;;;;;;13.00;7.78;;;;;;;;;;4936676;29;20082;-75
2022/08/18 02:56:20;;;;;;;13.98;8.13;;;;;;;;;;4938166;29;20489;-76
2022/08/18 02:58:47;;;;;;;11.32;7.63;;;;;;;;;;4938312;29;20031;-74
2022/08/18 03:01:13;;;;;;;13.25;7.95;;;;;;;;;;4939091;29;20096;-74
2022/08/18 03:03:39;;;;;;;14.57;7.63;;;;;;;;;;4938286;29;20499;-74
2022/08/18 03:06:05;;;;;;;16.58;8.02;;;;;;;;;;4938112;29;20020;-74
2022/08/18 03:08:31;;;;;;;11.55;8.05;;;;;;;;;;4937781;29;20028;-75
2022/08/18 03:10:58;;;;;;;14.52;7.78;;;;;;;;;;4937921;29;20170;-75
2022/08/18 03:13:24;;;;;;;11.25;7.53;;;;;;;;;;4937948;29;20031;-75
2022/08/18 03:15:51;;;;;;;10.93;7.45;;;;;;;;;;4937748;29;20434;-76
2022/08/18 03:18:17;;;;;;;13.50;7.88;;;;;;;;;;4937742;29;20027;-75
2022/08/18 03:20:44;;;;;;;15.80;7.78;;;;;;;;;;4937763;29;20126;-75
2022/08/18 03:23:10;;;;;;;12.38;7.40;;;;;;;;;;4938319;29;20019;-75
2022/08/18 03:25:43;;;;;;;10.55;7.45;;;;;;;;;;4937811;29;20032;-74
2022/08/18 03:28:09;;;;;;;13.03;7.80;;;;;;;;;;4921846;29;20034;-75
2022/08/18 03:30:35;;;;;;;11.43;7.47;;;;;;;;;;4937434;29;20024;-74
2022/08/18 03:33:01;;;;;;;16.92;8.02;;;;;;;;;;4937531;29;20491;-75
2022/08/18 03:35:29;;;;;;;11.77;7.63;;;;;;;;;;4937267;29;20075;-74
2022/08/18 03:37:58;;;;;;;15.73;8.25;;;;;;;;;;4937627;29;20154;-75
2022/08/18 03:40:24;;;;;;;12.32;7.88;;;;;;;;;;4921442;29;20035;-76
2022/08/18 03:42:50;;;;;;;19.00;7.72;;;;;;;;;;4937248;29;20090;-75
2022/08/18 03:45:16;;;;;;;12.30;7.15;;;;;;;;;;4937442;29;20036;-75
2022/08/18 03:47:44;;;;;;;15.25;7.85;;;;;;;;;;4937721;29;20035;-74
2022/08/18 03:50:11;;;;;;;13.43;8.10;;;;;;;;;;4937548;29;20167;-75
2022/08/18 03:52:38;;;;;;;11.20;7.63;;;;;;;;;;4937077;29;20035;-76
2022/08/18 03:55:05;;;;;;;12.30;8.48;;;;;;;;;;4937651;29;20074;-75
2022/08/18 03:57:32;;;;;;;14.68;8.40;;;;;;;;;;4936483;29;20039;-75
2022/08/18 03:59:59;;;;;;;18.60;8.40;;;;;;;;;;4936091;29;20485;-74
2022/08/18 04:02:26;;;;;;;16.95;8.65;;;;;;;;;;4920792;29;20464;-76
2022/08/18 04:04:52;;;;;;;15.27;8.35;;;;;;;;;;4935766;29;20020;-74
2022/08/18 04:07:18;;;;;;;14.80;8.52;;;;;;;;;;4921113;29;20028;-75
2022/08/18 04:09:44;;;;;;;13.25;7.53;;;;;;;;;;4936991;29;20028;-75
2022/08/18 04:12:12;;;;;;;20.27;8.80;;;;;;;;;;4938098;29;20067;-75
2022/08/18 04:14:45;;;;;;;15.00;8.48;;;;;;;;;;4936831;29;20126;-75
2022/08/18 04:17:11;;;;;;;18.75;8.65;;;;;;;;;;4937137;29;20498;-74
2022/08/18 04:19:37;;;;;;;16.48;8.13;;;;;;;;;;4936540;29;20485;-75
2022/08/18 04:22:04;;;;;;;15.05;8.77;;;;;;;;;;4935971;29;20032;-72
2022/08/18 04:24:30;;;;;;;15.32;8.50;;;;;;;;;;4936485;29;20051;-75
2022/08/18 04:26:58;;;;;;;15.13;8.32;;;;;;;;;;4935994;29;20055;-73
2022/08/18 04:29:24;;;;;;;14.43;8.30;;;;;;;;;;4943487;29;20036;-74
2022/08/18 04:31:50;;;;;;;11.73;7.22;;;;;;;;;;4936597;29;20064;-74
2022/08/18 04:34:19;;;;;;;11.52;7.03;;;;;;;;;;4935894;29;20062;-73
2022/08/18 04:36:46;;;;;;;13.10;6.88;;;;;;;;;;4936299;29;20036;-72
2022/08/18 04:39:13;;;;;;;11.18;7.40;;;;;;;;;;4941282;29;20028;-74
2022/08/18 04:41:40;;;;;;;15.95;7.72;;;;;;;;;;4934848;29;20083;-73
2022/08/18 04:44:07;;;;;;;9.73;6.72;;;;;;;;;;4935516;29;20134;-73
2022/08/18 04:46:42;;;;;;;10.40;6.72;;;;;;;;;;4937484;29;20100;-75
2022/08/18 04:49:09;;;;;;;12.20;6.95;;;;;;;;;;4936792;29;20042;-75
2022/08/18 04:51:36;;;;;;;15.30;8.13;;;;;;;;;;4920058;29;20107;-76
2022/08/18 04:54:02;;;;;;;13.23;6.88;;;;;;;;;;4936273;29;20090;-76
2022/08/18 04:56:31;;;;;;;9.05;6.05;;;;;;;;;;4937354;29;20035;-76
2022/08/18 04:58:59;;;;;;;8.10;5.90;;;;;;;;;;4936289;29;20102;-77
2022/08/18 05:01:27;;;;;;;15.95;7.07;;;;;;;;;;4936762;29;20035;-83
2022/08/18 05:03:54;;;;;;;13.82;6.82;;;;;;;;;;4937438;29;20038;-83
2022/08/18 05:06:24;;;;;;;11.60;6.47;;;;;;;;;;4936271;29;20054;-83
2022/08/18 05:08:54;;;;;;;8.77;5.90;;;;;;;;;;4935240;29;20032;-77
2022/08/18 05:14:05;;;;;;;13.98;6.13;;;;;;;;;;4942507;23;20056;-87
2022/08/18 05:16:35;;;;;;;10.38;6.20;;;;;;;;;;4904796;29;20172;-88
2022/08/18 05:19:04;;;;;;;10.20;5.25;;;;;;;;;;4906441;29;20473;-88
2022/08/18 05:21:31;;;;;;;9.98;5.35;;;;;;;;;;4907817;29;20032;-90
2022/08/18 05:23:59;;;;;;;8.18;4.93;;;;;;;;;;4904243;29;20095;-91
2022/08/18 05:26:26;;;;;;;8.38;4.20;;;;;;;;;;4895273;29;20390;-90
2022/08/18 05:28:53;;;;;;;12.48;4.90;;;;;;;;;;4896037;29;20135;-89
2022/08/18 05:31:21;;;;;;;7.28;4.38;;;;;;;;;;4903617;29;20397;-88
2022/08/18 05:33:47;;;;;;;15.52;4.90;;;;;;;;;;4903952;29;20035;-90
2022/08/18 05:36:29;;;;;;;6.80;4.45;;;;;;;;;;4903544;29;20043;-94
2022/08/18 05:39:02;;;;;;;11.07;4.28;;;;;;;;;;4903795;29;20028;-90
2022/08/18 05:41:32;;;;;;;8.40;4.07;;;;;;;;;;4903992;29;20115;-92
2022/08/18 05:43:59;;;;;;;7.80;3.90;;;;;;;;;;4904277;29;20418;-92
2022/08/18 05:46:34;;;;;;;13.35;4.30;;;;;;;;;;4903726;29;20032;-90
2022/08/18 05:49:00;;;;;;;9.07;3.90;;;;;;;;;;4903435;29;20119;-91
2022/08/18 05:51:53;;;;;;;8.45;4.22;;;;;;;;;;4903505;29;20094;-89
2022/08/18 05:57:11;;;;;;;9.60;4.53;;;;;;;;;;4921455;29;20155;-87
2022/08/18 05:59:38;;;;;;;10.20;3.97;;;;;;;;;;4920337;29;20477;-88
2022/08/18 06:02:18;;;;;;;7.25;4.82;;;;;;;;;;4902804;29;20099;-87
2022/08/18 06:04:47;;;;;;;14.00;4.60;;;;;;;;;;4902983;29;20035;-89
2022/08/18 06:07:16;;;;;;;9.32;4.55;;;;;;;;;;4908380;29;20080;-89
2022/08/18 06:09:47;;;;;;;6.32;3.80;;;;;;;;;;4914972;29;20032;-89
2022/08/18 06:12:21;;;;;;;7.05;4.20;;;;;;;;;;4900047;29;20541;-90
2022/08/18 06:14:48;;;;;;;8.13;4.60;;;;;;;;;;4884025;29;20044;-90
2022/08/18 06:17:14;;;;;;;7.70;3.70;;;;;;;;;;4884351;29;20043;-89
2022/08/18 06:19:59;;;;;;;6.80;4.13;;;;;;;;;;4884030;29;20486;-89
2022/08/18 06:22:25;;;;;;;16.60;4.18;;;;;;;;;;4883795;29;20501;-90
2022/08/18 06:25:06;;;;;;;7.28;4.28;;;;;;;;;;4883544;29;20029;-89
2022/08/18 06:27:58;;;;;;;8.50;3.72;;;;;;;;;;4884328;29;20084;-88
2022/08/18 06:30:43;;;;;;;9.25;4.25;;;;;;;;;;4881266;29;20192;-88
2022/08/18 06:33:12;;;;;;;8.00;3.78;;;;;;;;;;4887161;29;20501;-88
2022/08/18 06:35:44;;;;;;;8.80;4.18;;;;;;;;;;4887219;29;20043;-88
2022/08/18 06:41:13;;;;;;;6.78;3.97;;;;;;;;;;4907929;29;20268;-89
2022/08/18 06:43:43;;;;;;;12.27;4.28;;;;;;;;;;4890060;29;20040;-90
2022/08/18 06:46:12;;;;;;;9.07;4.22;;;;;;;;;;4887575;29;20092;-89
2022/08/18 06:48:48;;;;;;;6.15;3.83;;;;;;;;;;4886934;29;20458;-91
2022/08/18 06:51:18;;;;;;;7.45;4.10;;;;;;;;;;4887379;29;20024;-91
2022/08/18 06:53:54;;;;;;;7.00;3.70;;;;;;;;;;4887376;29;20131;-92
2022/08/18 06:56:27;;;;;;;6.03;4.25;;;;;;;;;;4886990;29;20434;-91
2022/08/18 06:58:53;;;;;;;5.50;3.90;;;;;;;;;;4887375;29;20572;-90
2022/08/18 07:01:21;;;;;;;8.35;4.22;;;;;;;;;;4910816;29;20032;-91
2022/08/18 07:03:55;;;;;;;9.90;3.80;;;;;;;;;;4949773;29;20032;-92
2022/08/18 07:06:22;;;;;;;6.57;4.15;;;;;;;;;;4923512;29;20037;-90
2022/08/18 07:08:49;;;;;;;8.68;4.35;;;;;;;;;;4943190;29;20489;-91
2022/08/18 07:11:22;;;;;;;7.35;4.20;;;;;;;;;;4941706;29;20035;-93
2022/08/18 07:13:48;;;;;;;;;;;;;;;;;;4940622;29;20500;-91
2022/08/18 07:16:36;;;;;;;13.70;4.32;;;;;;;;;;4924758;29;19914;-94
2022/08/18 07:19:10;;;;;;;7.82;4.88;;;;;;;;;;4925705;29;20034;-94
2022/08/18 07:21:39;;;;;;;7.80;4.03;;;;;;;;;;4928832;29;20028;-91
2022/08/18 07:24:11;;;;;;;9.82;4.40;;;;;;;;;;4947888;29;20016;-89
2022/08/18 07:27:02;;;;;;;7.22;4.72;;;;;;;;;;4951901;29;20032;-90
2022/08/18 07:29:29;;;;;;;6.55;4.20;;;;;;;;;;4928157;29;20036;-90
2022/08/18 07:31:57;;;;;;;12.70;4.47;;;;;;;;;;4910365;29;20043;-90
2022/08/18 07:34:36;;;;;;;14.68;4.07;;;;;;;;;;4887167;29;20031;-88
2022/08/18 07:37:06;;;;;;;8.60;4.03;;;;;;;;;;4887816;29;20502;-90
2022/08/18 07:39:35;;;;;;;11.20;4.15;;;;;;;;;;4888480;29;20029;-89
2022/08/18 07:42:10;;;;;;;7.25;4.03;;;;;;;;;;4891370;29;20052;-88
2022/08/18 07:44:36;;;;;;;7.85;3.78;;;;;;;;;;4898799;29;20032;-91
2022/08/18 07:47:09;;;;;;;7.85;3.83;;;;;;;;;;4905227;29;20020;-90
2022/08/18 07:49:36;;;;;;;6.72;3.63;;;;;;;;;;4887410;29;20040;-90
2022/08/18 07:52:07;;;;;;;11.65;3.45;;;;;;;;;;4887796;29;20036;-90
2022/08/18 07:54:47;;;;;;;8.20;3.60;;;;;;;;;;4892290;29;20037;-89
2022/08/18 07:57:13;;;;;;;8.07;3.90;;;;;;;;;;4906153;29;20305;-88
2022/08/18 07:59:46;;;;;;;8.70;3.95;;;;;;;;;;4892666;29;20052;-90
2022/08/18 08:02:15;;;;;;;10.15;3.85;;;;;;;;;;4886381;29;20036;-88
2022/08/18 08:04:41;;;;;;;8.82;3.90;;;;;;;;;;4885919;29;20123;-91
2022/08/18 08:07:14;;;;;;;7.07;3.70;;;;;;;;;;4889854;29;20123;-89
2022/08/18 08:09:58;;;;;;;5.82;3.38;;;;;;;;;;4900338;29;20066;-88
2022/08/18 08:12:38;;;;;;;9.38;3.53;;;;;;;;;;4939049;29;20046;-94
2022/08/18 08:18:16;;;;;;;5.07;3.28;;;;;;;;;;5182409;23;20082;-93
2022/08/18 08:20:52;;;;;;;8.90;3.55;;;;;;;;;;4938669;29;20035;-93
2022/08/18 08:23:35;;;;;;;5.60;3.10;;;;;;;;;;4904720;29;20072;-88
2022/08/18 08:26:20;;;;;;;7.60;3.72;;;;;;;;;;4937914;29;20056;-92
2022/08/18 08:28:55;;;;;;;7.68;2.97;;;;;;;;;;4937594;29;20032;-93
2022/08/18 08:31:41;;;;;;;10.43;3.00;;;;;;;;;;4935906;29;20062;-92
2022/08/18 08:34:12;;;;;;;4.97;3.22;;;;;;;;;;4938211;29;20044;-92
2022/08/18 08:36:40;;;;;;;6.00;3.55;;;;;;;;;;4939703;29;20071;-93
2022/08/18 08:39:12;;;;;;;9.63;4.05;;;;;;;;;;4935283;29;20035;-92
2022/08/18 08:41:41;;;;;;;9.27;3.40;;;;;;;;;;4939886;29;20024;-94
2022/08/18 08:44:10;;;;;;;12.43;3.78;;;;;;;;;;4893144;29;20031;-94
2022/08/18 08:46:49;;;;;;;8.20;3.17;;;;;;;;;;4935058;29;20169;-93
2022/08/18 08:49:18;;;;;;;4.00;3.08;;;;;;;;;;4933734;29;20481;-94
2022/08/18 08:51:48;;;;;;;8.35;3.25;;;;;;;;;;4935813;29;20032;-90
2022/08/18 08:54:24;;;;;;;6.43;2.90;;;;;;;;;;4936054;29;20023;-92
2022/08/18 08:56:53;;;;;;;11.50;3.30;;;;;;;;;;4939952;29;20036;-93
2022/08/18 08:59:20;;;;;;;5.18;2.63;;;;;;;;;;4939446;29;20024;-93
2022/08/18 09:02:07;;;;;;;9.60;3.58;;;;;;;;;;4939702;29;20036;-93
2022/08/18 09:04:39;;;;;;;7.78;2.95;;;;;;;;;;4885964;29;20032;-92
2022/08/18 09:07:05;;;;;;;15.95;3.00;;;;;;;;;;4940181;29;20413;-94
2022/08/18 09:09:50;;;;;;;8.55;3.00;;;;;;;;;;4940293;29;20023;-95
2022/08/18 09:12:24;;;;;;;7.95;3.28;;;;;;;;;;4936857;29;20028;-95
2022/08/18 09:14:58;;;;;;;13.63;3.17;;;;;;;;;;4936980;29;20039;-95
2022/08/18 09:17:40;;;;;;;4.22;2.83;;;;;;;;;;4933874;29;20032;-91
2022/08/18 09:20:25;;;;;;;4.50;2.75;;;;;;;;;;4955701;29;20048;-94
2022/08/18 09:22:53;;;;;;;4.70;3.00;;;;;;;;;;4946214;29;20031;-93
2022/08/18 09:25:40;;;;;;;4.53;2.78;;;;;;;;;;4940318;29;20087;-95
2022/08/18 09:28:11;;;;;;;5.65;3.85;;;;;;;;;;4940098;29;20027;-94
2022/08/18 09:30:55;;;;;;;4.68;2.80;;;;;;;;;;4942940;29;20043;-94
2022/08/18 09:33:50;;;;;;;9.70;3.30;;;;;;;;;;4942663;29;20119;-95
2022/08/18 09:36:30;;;;;;;6.05;2.80;;;;;;;;;;4941766;29;20034;-89
2022/08/18 09:41:50;;;;;;;11.45;3.03;;;;;;;;;;4939092;29;20039;-93
2022/08/18 09:44:37;;;;;;;3.72;2.20;;;;;;;;;;4937617;29;20038;-93
2022/08/18 09:47:03;;;;;;;6.22;3.00;;;;;;;;;;4937197;29;20036;-93
2022/08/18 09:52:26;;;;;;;4.35;2.75;;;;;;;;;;5443491;23;20114;-94
2022/08/18 09:54:59;;;;;;;5.05;2.70;;;;;;;;;;4935681;29;20392;-95
2022/08/18 09:57:28;;;;;;;4.15;2.78;;;;;;;;;;4936004;29;20035;-94
2022/08/18 10:00:21;;;;;;;3.60;2.55;;;;;;;;;;4936637;29;20032;-96
2022/08/18 10:02:49;;;;;;;20.15;2.58;;;;;;;;;;4986339;23;20052;-93
2022/08/18 10:17:57;;;;;;;6.63;2.80;;;;;;;;;;4927178;29;20075;-94
2022/08/18 10:20:33;;;;;;;5.05;2.63;;;;;;;;;;4922043;29;20047;-94
2022/08/18 10:23:19;;;;;;;7.45;2.78;;;;;;;;;;4924235;29;20171;-94
2022/08/18 10:34:38;;;;;;;13.57;2.90;;;;;;;;;;4974530;23;20087;-94
2022/08/18 10:37:24;;;;;;;5.68;2.63;;;;;;;;;;4921377;29;20043;-93
2022/08/18 10:46:18;;;;;;;5.40;2.67;;;;;;;;;;4935798;23;20049;-94
2022/08/18 10:49:21;;;;;;;;;;;;;;;;;;;;;
2022/08/18 10:56:03;;;;;;;3.50;2.05;;;;;;;;;;4936854;29;20079;-95
2022/08/18 10:58:29;;;;;;;4.63;2.10;;;;;;;;;;4929712;29;20484;-95
2022/08/18 11:01:19;;;;;;;6.55;1.90;;;;;;;;;;4921897;29;20472;-93
2022/08/18 11:18:19;;;;;;;;;;;;;;;;;;;;;
2022/08/18 11:33:31;;;;;;;5.45;2.28;;;;;;;;;;4877620;29;20057;-95
2022/08/18 11:39:28;;;;;;;6.57;1.90;;;;;;;;;;4883443;29;20068;-94
2022/08/18 11:42:02;;;;;;;5.80;2.28;;;;;;;;;;4868295;29;20043;-93
2022/08/18 11:45:30;;;;;;;;;;;;;;;;;;;;;
2022/08/18 11:51:30;;;;;;;5.47;2.42;;;;;;;;;;4919546;29;20051;-95
2022/08/18 11:54:07;;;;;;;6.70;2.20;;;;;;;;;;4903584;29;20036;-93
2022/08/18 12:37:28;;;;;;;4.18;1.85;;;;;;;;;;4920769;29;20041;-93
2022/08/18 12:40:16;;;;;;;3.85;2.03;;;;;;;;;;4907984;29;20040;-94
2022/08/18 12:49:31;;;;;;;5.63;3.05;;;;;;;;;;4791833;30;20035;-95
2022/08/18 12:57:39;;;;;;;4.68;1.77;;;;;;;;;;4789878;30;20116;-95
2022/08/18 13:00:11;;;;;;;3.28;1.75;;;;;;;;;;4811414;29;20061;-94
2022/08/18 13:11:47;;;;;;;7.85;2.53;;;;;;;;;;4837164;29;19922;-96
2022/08/18 13:27:06;;;;;;;5.78;2.25;;;;;;;;;;4791661;30;20073;-96
2022/08/18 13:37:55;;;;;;;4.75;1.95;;;;;;;;;;5910267;23;20083;-95
2022/08/18 13:40:26;;;;;;;5.10;2.50;;;;;;;;;;4911209;29;20039;-94
2022/08/18 13:42:58;;;;;;;6.00;2.22;;;;;;;;;;4903636;29;20036;-94
2022/08/18 13:45:38;;;;;;;5.15;1.70;;;;;;;;;;4903585;29;20052;-94
2022/08/18 13:51:32;;;;;;;7.70;2.45;;;;;;;;;;4885057;29;20021;-92
2022/08/18 13:54:08;;;;;;;4.93;2.58;;;;;;;;;;4865246;29;20064;-94
2022/08/18 13:56:45;;;;;;;3.28;2.20;;;;;;;;;;4897718;29;20044;-93
2022/08/18 13:59:11;;;;;;;5.05;1.90;;;;;;;;;;4902149;29;20040;-93
2022/08/18 14:01:40;;;;;;;6.65;2.00;;;;;;;;;;4903350;29;20059;-93
2022/08/18 14:04:15;;;;;;;5.78;2.00;;;;;;;;;;4902756;29;20032;-94
2022/08/18 14:06:42;;;;;;;3.83;1.95;;;;;;;;;;4902310;29;20036;-92
2022/08/18 14:09:12;;;;;;;7.20;2.45;;;;;;;;;;4901702;29;20088;-93
2022/08/18 14:11:41;;;;;;;4.03;2.08;;;;;;;;;;4903140;29;20032;-95
2022/08/18 14:14:11;;;;;;;5.47;2.45;;;;;;;;;;4903175;29;20027;-93
2022/08/18 14:16:37;;;;;;;6.13;2.80;;;;;;;;;;4902781;29;20032;-94
2022/08/18 14:27:53;;;;;;;5.65;2.38;;;;;;;;;;4907609;29;20063;-94
2022/08/18 14:30:22;;;;;;;8.43;3.10;;;;;;;;;;4904303;29;20028;-95
2022/08/18 14:32:54;;;;;;;4.40;2.40;;;;;;;;;;4906027;29;20028;-94
2022/08/18 14:35:21;;;;;;;6.72;2.30;;;;;;;;;;4902660;29;20024;-94
2022/08/18 14:37:47;;;;;;;3.47;1.77;;;;;;;;;;4908819;29;20029;-92
2022/08/18 14:40:20;;;;;;;3.83;2.15;;;;;;;;;;4889293;29;20093;-93
2022/08/18 14:42:46;;;;;;;4.15;1.90;;;;;;;;;;4883511;29;20025;-93
2022/08/18 14:45:16;;;;;;;10.20;2.10;;;;;;;;;;4885687;29;20058;-95
2022/08/18 14:47:55;;;;;;;6.05;2.03;;;;;;;;;;4884938;29;20065;-93
2022/08/18 14:53:19;;;;;;;7.03;2.40;;;;;;;;;;4909116;29;20036;-95
2022/08/18 14:55:51;;;;;;;6.55;2.25;;;;;;;;;;4890071;29;20032;-95
2022/08/18 14:58:26;;;;;;;;;;;;;;;;;;4889224;29;20390;-96
2022/08/18 15:01:05;;;;;;;8.93;2.65;;;;;;;;;;4905327;29;19908;-78
2022/08/18 15:03:31;;;;;;;8.90;2.50;;;;;;;;;;4885860;29;20025;-75
2022/08/18 15:05:57;;;;;;;9.82;2.67;;;;;;;;;;4902428;29;20510;-76
2022/08/18 15:08:23;;;;;;;4.70;2.13;;;;;;;;;;4885171;29;20040;-78
2022/08/18 15:10:53;;;;;;;4.65;2.22;;;;;;;;;;4885776;29;20120;-78
2022/08/18 15:13:19;;;;;;;4.82;2.10;;;;;;;;;;4903544;29;20032;-79
2022/08/18 15:15:45;;;;;;;4.50;1.92;;;;;;;;;;4885078;29;20024;-75
2022/08/18 15:18:12;;;;;;;13.80;2.42;;;;;;;;;;4884360;29;20032;-74
2022/08/18 15:25:40;;;;;;;4.78;1.65;;;;;;;;;;4884164;29;20080;-74
2022/08/18 15:26:10;;;;;;;7.47;2.00;;;;;;;;;;4920319;29;20438;-77
2022/08/18 15:28:37;;;;;;;8.95;2.35;;;;;;;;;;4903115;29;20430;-76
2022/08/18 15:31:04;;;;;;;4.05;1.73;;;;;;;;;;4920270;29;20473;-78
2022/08/18 15:33:30;;;;;;;3.05;1.83;;;;;;;;;;4919838;29;20051;-80
2022/08/18 15:36:00;;;;;;;3.83;1.85;;;;;;;;;;4920604;29;20352;-78
2022/08/18 15:38:26;;;;;;;8.68;2.35;;;;;;;;;;4896601;29;20087;-78
2022/08/18 15:40:56;;;;;;;8.75;1.80;;;;;;;;;;4883847;29;20041;-77
2022/08/18 15:43:23;;;;;;;4.57;1.73;;;;;;;;;;4884041;29;20080;-78
2022/08/18 15:45:50;;;;;;;6.00;2.08;;;;;;;;;;4883333;29;20089;-77
2022/08/18 15:48:18;;;;;;;5.57;1.67;;;;;;;;;;4883916;29;20120;-78
2022/08/18 15:50:47;;;;;;;4.28;1.73;;;;;;;;;;4883916;29;20033;-80
2022/08/18 15:53:14;;;;;;;6.18;2.03;;;;;;;;;;4883636;29;20032;-78
2022/08/18 15:55:40;;;;;;;4.95;1.83;;;;;;;;;;4883347;29;20032;-76
2022/08/18 15:58:07;;;;;;;7.60;2.05;;;;;;;;;;4883514;29;20492;-78
2022/08/18 16:00:33;;;;;;;4.03;2.00;;;;;;;;;;4900596;29;20108;-77
2022/08/18 16:03:01;;;;;;;6.68;1.90;;;;;;;;;;4884548;29;20389;-76
2022/08/18 16:05:29;;;;;;;9.40;2.47;;;;;;;;;;4900317;29;20033;-78
2022/08/18 16:07:57;;;;;;;7.97;1.95;;;;;;;;;;4884356;29;20036;-76
2022/08/18 16:10:24;;;;;;;10.13;2.83;;;;;;;;;;4900966;29;20094;-76
2022/08/18 16:12:50;;;;;;;8.63;2.10;;;;;;;;;;4901508;29;20564;-60
2022/08/18 16:15:18;;;;;;;8.10;2.40;;;;;;;;;;4891036;29;20490;-73
2022/08/18 16:17:45;;;;;;;4.32;1.92;;;;;;;;;;4881510;29;20032;-73
2022/08/18 16:20:12;;;;;;;7.57;2.10;;;;;;;;;;4865283;29;20025;-78
2022/08/18 16:22:43;;;;;;;6.30;2.28;;;;;;;;;;4865009;29;20029;-78
2022/08/18 16:25:09;;;;;;;3.70;2.13;;;;;;;;;;4882690;29;20028;-76
2022/08/18 16:27:36;;;;;;;5.45;2.00;;;;;;;;;;4880998;29;20406;-74
2022/08/18 16:30:05;;;;;;;6.18;2.22;;;;;;;;;;4864822;29;20037;-76
2022/08/18 16:32:31;;;;;;;5.80;2.05;;;;;;;;;;4881822;29;20546;-76
2022/08/18 16:34:58;;;;;;;5.82;2.28;;;;;;;;;;4881984;29;20374;-73
2022/08/18 16:37:25;;;;;;;6.18;1.92;;;;;;;;;;4882127;29;20032;-78
2022/08/18 16:39:51;;;;;;;9.32;2.42;;;;;;;;;;4895216;29;20049;-74
2022/08/18 16:42:18;;;;;;;6.45;2.05;;;;;;;;;;4898304;29;20025;-77
2022/08/18 16:44:44;;;;;;;9.30;2.17;;;;;;;;;;4908209;29;20054;-82
2022/08/18 16:47:12;;;;;;;7.07;2.40;;;;;;;;;;4900419;29;20054;-77
2022/08/18 16:49:39;;;;;;;5.90;2.45;;;;;;;;;;4898438;29;20469;-77
2022/08/18 16:52:05;;;;;;;8.43;2.40;;;;;;;;;;4898392;29;20115;-80
2022/08/18 16:54:33;;;;;;;9.85;2.35;;;;;;;;;;4898324;29;20120;-83
2022/08/18 16:56:59;;;;;;;9.40;3.08;;;;;;;;;;4898214;29;20401;-82
2022/08/18 17:05:01;;;;;;;14.90;3.70;;;;;;;;;;4899040;29;20442;-81
2022/08/18 17:07:27;;;;;;;7.63;2.97;;;;;;;;;;4898069;29;20036;-76
2022/08/18 17:09:53;;;;;;;14.70;3.10;;;;;;;;;;4898307;29;20065;-76
2022/08/18 17:12:20;;;;;;;19.60;3.67;;;;;;;;;;4897656;29;20084;-79
2022/08/18 17:14:47;;;;;;;15.07;3.47;;;;;;;;;;4898364;29;20028;-74
2022/08/18 17:17:16;;;;;;;13.35;3.28;;;;;;;;;;4897772;29;20036;-77
2022/08/18 17:19:42;;;;;;;16.58;2.88;;;;;;;;;;4897863;29;20053;-80
2022/08/18 17:22:09;;;;;;;16.40;3.00;;;;;;;;;;4899820;29;20033;-78
2022/08/18 17:24:36;;;;;;;9.90;2.40;;;;;;;;;;4898177;29;20077;-78
2022/08/18 17:27:13;;;;;;;8.48;2.70;;;;;;;;;;4897875;29;20048;-78
2022/08/18 17:30:01;;;;;;;7.03;2.72;;;;;;;;;;4898914;29;20543;-81
2022/08/18 17:32:35;;;;;;;13.73;2.72;;;;;;;;;;4897996;29;20067;-80
2022/08/18 17:35:04;;;;;;;6.95;2.58;;;;;;;;;;4897784;29;20028;-81
2022/08/18 17:37:31;;;;;;;11.43;2.90;;;;;;;;;;4899499;29;20032;-79
2022/08/18 17:40:02;;;;;;;8.98;2.80;;;;;;;;;;4897553;29;20052;-79
2022/08/18 17:42:30;;;;;;;7.03;2.63;;;;;;;;;;4897967;29;20060;-79
2022/08/18 17:45:00;;;;;;;15.05;2.97;;;;;;;;;;4897486;29;20065;-81
2022/08/18 17:47:34;;;;;;;9.60;2.78;;;;;;;;;;4897158;29;20047;-79
2022/08/18 17:52:50;;;;;;;18.35;4.35;;;;;;;;;;4898730;29;20039;-80
2022/08/18 17:55:22;;;;;;;22.52;4.88;;;;;;;;;;4897969;29;20119;-81
2022/08/18 17:57:56;;;;;;;17.80;4.75;;;;;;;;;;4897571;29;20081;-79
2022/08/18 18:00:22;;;;;;;17.52;4.60;;;;;;;;;;4897339;29;20025;-75
2022/08/18 18:02:48;;;;;;;30.83;5.97;;;;;;;;;;4897443;29;20446;-76
2022/08/18 18:05:16;;;;;;;9.95;4.28;;;;;;;;;;4897461;29;20029;-77
2022/08/18 18:07:42;;;;;;;20.02;4.97;;;;;;;;;;4897820;29;20044;-78
2022/08/18 18:10:11;;;;;;;11.00;3.55;;;;;;;;;;4899272;29;20426;-78
2022/08/18 18:12:37;;;;;;;8.27;3.28;;;;;;;;;;4897767;29;20080;-75
2022/08/18 18:15:05;;;;;;;11.57;3.28;;;;;;;;;;4897198;29;20104;-76
2022/08/18 18:17:36;;;;;;;18.02;3.85;;;;;;;;;;4897181;29;20040;-77
2022/08/18 18:20:21;;;;;;;12.50;2.75;;;;;;;;;;4897288;29;20534;-76